Main page
METAR-TAF:

METAR-TAF

Airports :

Perpignan, France

Perpignan–Rivesaltes Airport

latitude: 42-44N, longitude: 002-52E, elevation: 43 m

Current weather observation

The report was made 35 minutes ago, at 04:00 UTC
Calm wind
Temperature 10°C
Humidity 71%
Pressure 1012 hPa
Visibility 10 km or more
no clouds below 1500 m and no cumulonimbus

METAR: LFMP 270400Z AUTO 00000KT CAVOK 10/05 Q1012 NOSIG

Time: 06:35 (04:35 UTC)

Forecast

The report was made 2 hours and 35 minutes ago, at 02:00 UTC
Forecast valid from 27 at 03 UTC to 28 at 03 UTC
Wind 5 kt from the West/Southwest
Visibility 10 km or more
no clouds below 1500 m and no cumulonimbus
Becoming
from 27 at 07 UTC to 27 at 09 UTC
Wind 10 kt from the East
Temporary
from 27 at 10 UTC to 27 at 15 UTC
Few clouds at a height of 4000 ft, Towering cumulus.
Becoming
from 27 at 19 UTC to 27 at 21 UTC
Wind 10 kt from the Northwest

TAF: LFMP 270200Z 2703/2803 24005KT CAVOK BECMG 2707/2709 09010KT TEMPO 2710/2715 FEW040TCU BECMG 2719/2721 32010KT

Weather observations and forecasts of more than 4000 airports (METAR and TAF reports).

The available stations are represented by yellow and red dots on the map.

Hover mouse over dot to see the name of the station.

Then click to see weather observations and forecasts.

To change the map : click on the green buttons with a black cross to zoom in, on the green button with a dash to zoom out, or on the green arrows for adjacent maps.


METAR-TAF: